sensor_id;sensor_type;location;lat;lon;timestamp;pressure;altitude;pressure_sealevel;temperature;humidity
16544;BME280;8384;47.996;7.786;2023-01-26T00:01:55;99353.56;;;-0.26;100.00
16544;BME280;8384;47.996;7.786;2023-01-26T00:04:20;99339.00;;;-0.32;100.00
16544;BME280;8384;47.996;7.786;2023-01-26T00:06:46;99323.78;;;-0.39;100.00
16544;BME280;8384;47.996;7.786;2023-01-26T00:09:12;99350.69;;;-0.16;100.00
16544;BME280;8384;47.996;7.786;2023-01-26T00:11:38;99291.94;;;-0.51;100.00
16544;BME280;8384;47.996;7.786;2023-01-26T00:14:04;99330.59;;;-0.28;100.00
16544;BME280;8384;47.996;7.786;2023-01-26T00:16:29;99339.31;;;-0.26;100.00
16544;BME280;8384;47.996;7.786;2023-01-26T00:18:54;99315.72;;;-0.39;100.00
16544;BME280;8384;47.996;7.786;2023-01-26T00:21:21;99308.94;;;-0.27;100.00
16544;BME280;8384;47.996;7.786;2023-01-26T00:23:47;99315.22;;;-0.11;100.00
16544;BME280;8384;47.996;7.786;2023-01-26T00:26:18;99347.25;;;-0.02;100.00
16544;BME280;8384;47.996;7.786;2023-01-26T00:28:44;99323.63;;;-0.14;100.00
16544;BME280;8384;47.996;7.786;2023-01-26T00:31:15;99311.69;;;-0.35;100.00
16544;BME280;8384;47.996;7.786;2023-01-26T00:33:41;99327.19;;;-0.14;100.00
16544;BME280;8384;47.996;7.786;2023-01-26T00:36:07;99277.28;;;-0.71;100.00
16544;BME280;8384;47.996;7.786;2023-01-26T00:38:32;99338.63;;;-0.20;100.00
16544;BME280;8384;47.996;7.786;2023-01-26T00:40:57;99312.56;;;-0.43;100.00
16544;BME280;8384;47.996;7.786;2023-01-26T00:43:23;99314.59;;;-0.22;100.00
16544;BME280;8384;47.996;7.786;2023-01-26T00:45:48;99324.34;;;-0.21;100.00
16544;BME280;8384;47.996;7.786;2023-01-26T00:48:13;99325.66;;;-0.17;100.00
16544;BME280;8384;47.996;7.786;2023-01-26T00:50:38;99295.88;;;-0.30;100.00
16544;BME280;8384;47.996;7.786;2023-01-26T00:53:04;99301.00;;;-0.20;100.00
16544;BME280;8384;47.996;7.786;2023-01-26T00:55:29;99297.66;;;-0.22;100.00
16544;BME280;8384;47.996;7.786;2023-01-26T00:57:58;99296.88;;;-0.08;100.00
16544;BME280;8384;47.996;7.786;2023-01-26T01:00:24;99290.97;;;-0.26;100.00
16544;BME280;8384;47.996;7.786;2023-01-26T01:02:49;99306.97;;;-0.10;100.00
16544;BME280;8384;47.996;7.786;2023-01-26T01:05:15;99283.81;;;-0.11;100.00
16544;BME280;8384;47.996;7.786;2023-01-26T01:07:40;99300.72;;;-0.02;100.00
16544;BME280;8384;47.996;7.786;2023-01-26T01:10:06;99285.72;;;-0.20;100.00
16544;BME280;8384;47.996;7.786;2023-01-26T01:12:32;99263.78;;;-0.32;100.00
16544;BME280;8384;47.996;7.786;2023-01-26T01:14:57;99301.16;;;-0.22;100.00
16544;BME280;8384;47.996;7.786;2023-01-26T01:17:23;99304.78;;;-0.06;100.00
16544;BME280;8384;47.996;7.786;2023-01-26T01:19:48;99276.53;;;-0.25;100.00
16544;BME280;8384;47.996;7.786;2023-01-26T01:22:13;99271.38;;;-0.35;100.00
16544;BME280;8384;47.996;7.786;2023-01-26T01:24:38;99262.88;;;-0.47;100.00
16544;BME280;8384;47.996;7.786;2023-01-26T01:27:04;99277.56;;;-0.35;100.00
16544;BME280;8384;47.996;7.786;2023-01-26T01:29:29;99258.91;;;-0.28;100.00
16544;BME280;8384;47.996;7.786;2023-01-26T01:31:54;99252.75;;;-0.37;100.00
16544;BME280;8384;47.996;7.786;2023-01-26T01:34:19;99257.28;;;-0.37;100.00
16544;BME280;8384;47.996;7.786;2023-01-26T01:36:45;99254.34;;;-0.51;100.00
16544;BME280;8384;47.996;7.786;2023-01-26T01:39:10;99258.22;;;-0.53;100.00
16544;BME280;8384;47.996;7.786;2023-01-26T01:41:35;99263.41;;;-0.52;100.00
16544;BME280;8384;47.996;7.786;2023-01-26T01:44:30;99225.38;;;-0.64;100.00
16544;BME280;8384;47.996;7.786;2023-01-26T01:47:00;99275.19;;;-0.29;100.00
16544;BME280;8384;47.996;7.786;2023-01-26T01:52:02;99264.59;;;-0.54;100.00
16544;BME280;8384;47.996;7.786;2023-01-26T01:54:32;99262.66;;;-0.37;100.00
16544;BME280;8384;47.996;7.786;2023-01-26T01:57:01;99270.19;;;-0.33;100.00
16544;BME280;8384;47.996;7.786;2023-01-26T01:59:29;99264.34;;;-0.36;100.00
16544;BME280;8384;47.996;7.786;2023-01-26T02:01:55;99251.22;;;-0.63;100.00
16544;BME280;8384;47.996;7.786;2023-01-26T02:04:21;99273.97;;;-0.50;100.00
16544;BME280;8384;47.996;7.786;2023-01-26T02:06:50;99245.06;;;-0.71;100.00
16544;BME280;8384;47.996;7.786;2023-01-26T02:09:21;99283.88;;;-0.51;100.00
16544;BME280;8384;47.996;7.786;2023-01-26T02:12:10;99266.16;;;-0.60;100.00
16544;BME280;8384;47.996;7.786;2023-01-26T02:14:37;99245.84;;;-0.63;100.00
16544;BME280;8384;47.996;7.786;2023-01-26T02:17:03;99263.59;;;-0.53;100.00
16544;BME280;8384;47.996;7.786;2023-01-26T02:19:51;99259.91;;;-0.52;100.00
16544;BME280;8384;47.996;7.786;2023-01-26T02:28:18;99253.97;;;-0.48;100.00
16544;BME280;8384;47.996;7.786;2023-01-26T02:30:45;99248.19;;;-0.59;100.00
16544;BME280;8384;47.996;7.786;2023-01-26T02:33:16;99242.69;;;-0.66;100.00
16544;BME280;8384;47.996;7.786;2023-01-26T02:35:42;99250.47;;;-0.48;100.00
16544;BME280;8384;47.996;7.786;2023-01-26T02:38:07;99215.53;;;-0.71;100.00
16544;BME280;8384;47.996;7.786;2023-01-26T02:43:13;99239.44;;;-0.53;100.00
16544;BME280;8384;47.996;7.786;2023-01-26T02:45:39;99214.88;;;-0.73;100.00
16544;BME280;8384;47.996;7.786;2023-01-26T02:48:05;99211.16;;;-0.72;100.00
16544;BME280;8384;47.996;7.786;2023-01-26T02:50:32;99237.44;;;-0.59;100.00
16544;BME280;8384;47.996;7.786;2023-01-26T02:52:58;99236.28;;;-0.57;100.00
16544;BME280;8384;47.996;7.786;2023-01-26T02:55:24;99216.63;;;-0.57;100.00
16544;BME280;8384;47.996;7.786;2023-01-26T02:58:01;99217.03;;;-0.69;100.00
16544;BME280;8384;47.996;7.786;2023-01-26T03:00:30;99230.47;;;-0.46;100.00
16544;BME280;8384;47.996;7.786;2023-01-26T03:02:57;99204.28;;;-0.67;100.00
16544;BME280;8384;47.996;7.786;2023-01-26T03:05:27;99227.19;;;-0.56;100.00
16544;BME280;8384;47.996;7.786;2023-01-26T03:07:53;99209.19;;;-0.79;100.00
16544;BME280;8384;47.996;7.786;2023-01-26T03:10:19;99217.44;;;-0.80;100.00
16544;BME280;8384;47.996;7.786;2023-01-26T03:12:45;99233.50;;;-0.72;100.00
16544;BME280;8384;47.996;7.786;2023-01-26T03:15:10;99208.59;;;-0.97;100.00
16544;BME280;8384;47.996;7.786;2023-01-26T03:18:09;99214.75;;;-0.80;100.00
16544;BME280;8384;47.996;7.786;2023-01-26T03:20:53;99200.34;;;-0.87;100.00
16544;BME280;8384;47.996;7.786;2023-01-26T03:23:37;99197.56;;;-1.02;100.00
16544;BME280;8384;47.996;7.786;2023-01-26T03:26:21;99204.78;;;-1.03;100.00
16544;BME280;8384;47.996;7.786;2023-01-26T03:29:05;99212.28;;;-0.90;100.00
16544;BME280;8384;47.996;7.786;2023-01-26T03:31:30;99222.75;;;-0.72;100.00
16544;BME280;8384;47.996;7.786;2023-01-26T03:33:56;99188.47;;;-0.93;100.00
16544;BME280;8384;47.996;7.786;2023-01-26T03:36:21;99194.47;;;-0.83;100.00
16544;BME280;8384;47.996;7.786;2023-01-26T03:38:46;99192.78;;;-0.84;100.00
16544;BME280;8384;47.996;7.786;2023-01-26T03:41:12;99194.03;;;-0.95;100.00
16544;BME280;8384;47.996;7.786;2023-01-26T03:43:55;99193.97;;;-0.86;100.00
16544;BME280;8384;47.996;7.786;2023-01-26T03:46:39;99212.09;;;-0.88;100.00
16544;BME280;8384;47.996;7.786;2023-01-26T03:49:23;99197.19;;;-0.91;100.00
16544;BME280;8384;47.996;7.786;2023-01-26T03:52:07;99194.50;;;-0.91;100.00
16544;BME280;8384;47.996;7.786;2023-01-26T03:54:51;99217.78;;;-0.83;100.00
16544;BME280;8384;47.996;7.786;2023-01-26T03:57:35;99163.22;;;-1.07;100.00
16544;BME280;8384;47.996;7.786;2023-01-26T04:00:00;99226.69;;;-0.83;100.00
16544;BME280;8384;47.996;7.786;2023-01-26T04:02:26;99198.84;;;-0.90;100.00
16544;BME280;8384;47.996;7.786;2023-01-26T04:05:09;99207.44;;;-0.95;100.00
16544;BME280;8384;47.996;7.786;2023-01-26T04:07:53;99120.34;;;-1.55;100.00
16544;BME280;8384;47.996;7.786;2023-01-26T04:10:37;99200.66;;;-1.14;100.00
16544;BME280;8384;47.996;7.786;2023-01-26T04:13:03;99205.13;;;-1.06;100.00
16544;BME280;8384;47.996;7.786;2023-01-26T04:15:47;99209.69;;;-1.07;100.00
16544;BME280;8384;47.996;7.786;2023-01-26T04:18:32;99182.69;;;-1.13;100.00
16544;BME280;8384;47.996;7.786;2023-01-26T04:21:16;99196.41;;;-1.00;100.00
16544;BME280;8384;47.996;7.786;2023-01-26T04:23:58;99183.69;;;-1.14;100.00
16544;BME280;8384;47.996;7.786;2023-01-26T04:26:27;99204.44;;;-1.00;100.00
16544;BME280;8384;47.996;7.786;2023-01-26T04:29:00;99195.84;;;-0.95;100.00
16544;BME280;8384;47.996;7.786;2023-01-26T04:31:25;99201.53;;;-0.90;100.00
16544;BME280;8384;47.996;7.786;2023-01-26T04:33:50;99174.47;;;-1.12;100.00
16544;BME280;8384;47.996;7.786;2023-01-26T04:36:16;99176.97;;;-1.10;100.00
16544;BME280;8384;47.996;7.786;2023-01-26T04:38:41;99183.94;;;-0.93;100.00
16544;BME280;8384;47.996;7.786;2023-01-26T04:41:06;99185.25;;;-0.88;100.00
16544;BME280;8384;47.996;7.786;2023-01-26T04:43:31;99161.97;;;-0.96;100.00
16544;BME280;8384;47.996;7.786;2023-01-26T04:46:01;99179.06;;;-0.89;100.00
16544;BME280;8384;47.996;7.786;2023-01-26T04:48:27;99177.47;;;-0.75;100.00
16544;BME280;8384;47.996;7.786;2023-01-26T04:51:00;99149.47;;;-1.04;100.00
16544;BME280;8384;47.996;7.786;2023-01-26T04:53:26;99169.22;;;-0.97;100.00
16544;BME280;8384;47.996;7.786;2023-01-26T04:55:52;99161.63;;;-0.93;100.00
16544;BME280;8384;47.996;7.786;2023-01-26T04:58:18;99115.25;;;-1.33;100.00
16544;BME280;8384;47.996;7.786;2023-01-26T05:00:43;99110.00;;;-1.27;100.00
16544;BME280;8384;47.996;7.786;2023-01-26T05:03:09;99128.91;;;-1.20;100.00
16544;BME280;8384;47.996;7.786;2023-01-26T05:05:38;99168.88;;;-0.94;100.00
16544;BME280;8384;47.996;7.786;2023-01-26T05:08:04;99164.53;;;-1.03;100.00
16544;BME280;8384;47.996;7.786;2023-01-26T05:10:30;99156.03;;;-1.07;100.00
16544;BME280;8384;47.996;7.786;2023-01-26T05:12:55;99160.88;;;-1.10;100.00
16544;BME280;8384;47.996;7.786;2023-01-26T05:15:20;99127.47;;;-1.39;100.00
16544;BME280;8384;47.996;7.786;2023-01-26T05:17:46;99156.59;;;-1.19;100.00
16544;BME280;8384;47.996;7.786;2023-01-26T05:20:11;99144.03;;;-1.27;100.00
16544;BME280;8384;47.996;7.786;2023-01-26T05:22:36;99144.88;;;-1.27;100.00
16544;BME280;8384;47.996;7.786;2023-01-26T05:25:02;99139.19;;;-1.32;100.00
16544;BME280;8384;47.996;7.786;2023-01-26T05:27:27;99154.91;;;-1.21;100.00
16544;BME280;8384;47.996;7.786;2023-01-26T05:29:53;99141.88;;;-1.32;100.00
16544;BME280;8384;47.996;7.786;2023-01-26T05:32:23;99144.38;;;-1.30;100.00
16544;BME280;8384;47.996;7.786;2023-01-26T05:34:48;99148.72;;;-1.29;100.00
16544;BME280;8384;47.996;7.786;2023-01-26T05:37:13;99117.09;;;-1.42;100.00
16544;BME280;8384;47.996;7.786;2023-01-26T05:39:38;99154.53;;;-1.17;100.00
16544;BME280;8384;47.996;7.786;2023-01-26T05:42:04;99165.44;;;-1.19;100.00
16544;BME280;8384;47.996;7.786;2023-01-26T05:44:29;99149.59;;;-1.37;100.00
16544;BME280;8384;47.996;7.786;2023-01-26T05:46:54;99160.31;;;-1.29;100.00
16544;BME280;8384;47.996;7.786;2023-01-26T05:49:19;99162.84;;;-1.36;100.00
16544;BME280;8384;47.996;7.786;2023-01-26T05:51:45;99146.94;;;-1.45;100.00
16544;BME280;8384;47.996;7.786;2023-01-26T05:54:10;99128.56;;;-1.57;100.00
16544;BME280;8384;47.996;7.786;2023-01-26T05:56:35;99156.78;;;-1.29;100.00
16544;BME280;8384;47.996;7.786;2023-01-26T05:59:01;99161.66;;;-1.33;100.00
16544;BME280;8384;47.996;7.786;2023-01-26T06:01:26;99178.53;;;-1.24;100.00
16544;BME280;8384;47.996;7.786;2023-01-26T06:03:53;99163.19;;;-1.39;100.00
16544;BME280;8384;47.996;7.786;2023-01-26T06:06:18;99177.88;;;-1.26;100.00
16544;BME280;8384;47.996;7.786;2023-01-26T06:08:43;99146.44;;;-1.41;100.00
16544;BME280;8384;47.996;7.786;2023-01-26T06:11:09;99169.34;;;-1.30;100.00
16544;BME280;8384;47.996;7.786;2023-01-26T06:13:34;99150.28;;;-1.43;100.00
16544;BME280;8384;47.996;7.786;2023-01-26T06:16:00;99138.41;;;-1.41;100.00
16544;BME280;8384;47.996;7.786;2023-01-26T06:18:26;99160.31;;;-1.29;100.00
16544;BME280;8384;47.996;7.786;2023-01-26T06:20:51;99144.09;;;-1.44;100.00
16544;BME280;8384;47.996;7.786;2023-01-26T06:23:16;99135.06;;;-1.43;100.00
16544;BME280;8384;47.996;7.786;2023-01-26T06:25:41;99136.06;;;-1.44;100.00
16544;BME280;8384;47.996;7.786;2023-01-26T06:28:07;99144.44;;;-1.47;100.00
16544;BME280;8384;47.996;7.786;2023-01-26T06:30:32;99167.69;;;-1.31;100.00
16544;BME280;8384;47.996;7.786;2023-01-26T06:32:58;99160.97;;;-1.27;100.00
16544;BME280;8384;47.996;7.786;2023-01-26T06:35:24;99137.19;;;-1.38;100.00
16544;BME280;8384;47.996;7.786;2023-01-26T06:37:51;99156.44;;;-1.26;100.00
16544;BME280;8384;47.996;7.786;2023-01-26T06:40:17;99137.19;;;-1.38;100.00
16544;BME280;8384;47.996;7.786;2023-01-26T06:42:49;99136.22;;;-1.45;100.00
16544;BME280;8384;47.996;7.786;2023-01-26T06:45:16;99116.53;;;-1.69;100.00
16544;BME280;8384;47.996;7.786;2023-01-26T06:47:49;99146.78;;;-1.44;100.00
16544;BME280;8384;47.996;7.786;2023-01-26T06:50:17;99153.97;;;-1.44;100.00
16544;BME280;8384;47.996;7.786;2023-01-26T06:52:46;99149.34;;;-1.51;100.00
16544;BME280;8384;47.996;7.786;2023-01-26T06:55:27;99173.13;;;-1.47;100.00
16544;BME280;8384;47.996;7.786;2023-01-26T06:57:54;99121.41;;;-1.64;100.00
16544;BME280;8384;47.996;7.786;2023-01-26T07:00:19;99136.44;;;-1.55;100.00
16544;BME280;8384;47.996;7.786;2023-01-26T07:02:45;99153.53;;;-1.56;100.00
16544;BME280;8384;47.996;7.786;2023-01-26T07:05:10;99149.66;;;-1.54;100.00
16544;BME280;8384;47.996;7.786;2023-01-26T07:07:35;99153.19;;;-1.53;100.00
16544;BME280;8384;47.996;7.786;2023-01-26T07:10:02;99145.47;;;-1.56;100.00
16544;BME280;8384;47.996;7.786;2023-01-26T07:12:37;99112.22;;;-1.78;100.00
16544;BME280;8384;47.996;7.786;2023-01-26T07:15:03;99151.34;;;-1.53;100.00
16544;BME280;8384;47.996;7.786;2023-01-26T07:17:28;99123.56;;;-1.68;100.00
16544;BME280;8384;47.996;7.786;2023-01-26T07:19:53;99140.84;;;-1.71;100.00
16544;BME280;8384;47.996;7.786;2023-01-26T07:22:18;99146.84;;;-1.60;100.00
16544;BME280;8384;47.996;7.786;2023-01-26T07:24:44;99153.81;;;-1.43;100.00
16544;BME280;8384;47.996;7.786;2023-01-26T07:27:09;99134.56;;;-1.46;100.00
16544;BME280;8384;47.996;7.786;2023-01-26T07:29:34;99153.63;;;-1.33;100.00
16544;BME280;8384;47.996;7.786;2023-01-26T07:31:59;99164.00;;;-1.30;100.00
16544;BME280;8384;47.996;7.786;2023-01-26T07:34:24;99138.41;;;-1.49;100.00
16544;BME280;8384;47.996;7.786;2023-01-26T07:36:50;99186.38;;;-1.14;100.00
16544;BME280;8384;47.996;7.786;2023-01-26T07:39:16;99177.19;;;-1.20;100.00
16544;BME280;8384;47.996;7.786;2023-01-26T07:41:41;99170.19;;;-1.29;100.00
16544;BME280;8384;47.996;7.786;2023-01-26T07:44:09;99155.81;;;-1.37;100.00
16544;BME280;8384;47.996;7.786;2023-01-26T07:46:34;99160.31;;;-1.37;100.00
16544;BME280;8384;47.996;7.786;2023-01-26T07:49:00;99184.56;;;-1.22;100.00
16544;BME280;8384;47.996;7.786;2023-01-26T07:51:25;99177.09;;;-1.35;100.00
16544;BME280;8384;47.996;7.786;2023-01-26T07:53:50;99182.47;;;-1.43;100.00
16544;BME280;8384;47.996;7.786;2023-01-26T07:56:17;99169.44;;;-1.46;100.00
16544;BME280;8384;47.996;7.786;2023-01-26T07:58:52;99172.75;;;-1.44;100.00
16544;BME280;8384;47.996;7.786;2023-01-26T08:01:17;99176.25;;;-1.36;100.00
16544;BME280;8384;47.996;7.786;2023-01-26T08:03:43;99176.06;;;-1.34;100.00
16544;BME280;8384;47.996;7.786;2023-01-26T08:06:12;99158.88;;;-1.48;100.00
16544;BME280;8384;47.996;7.786;2023-01-26T08:08:38;99176.28;;;-1.44;100.00
16544;BME280;8384;47.996;7.786;2023-01-26T08:11:07;99167.91;;;-1.49;100.00
16544;BME280;8384;47.996;7.786;2023-01-26T08:13:33;99153.72;;;-1.58;100.00
16544;BME280;8384;47.996;7.786;2023-01-26T08:16:07;99183.66;;;-1.46;100.00
16544;BME280;8384;47.996;7.786;2023-01-26T08:18:34;99177.97;;;-1.43;100.00
16544;BME280;8384;47.996;7.786;2023-01-26T08:21:00;99163.56;;;-1.50;100.00
16544;BME280;8384;47.996;7.786;2023-01-26T08:23:25;99147.50;;;-1.58;100.00
16544;BME280;8384;47.996;7.786;2023-01-26T08:25:51;99166.75;;;-1.55;100.00
16544;BME280;8384;47.996;7.786;2023-01-26T08:28:16;99140.66;;;-1.69;100.00
16544;BME280;8384;47.996;7.786;2023-01-26T08:30:41;99166.91;;;-1.56;100.00
16544;BME280;8384;47.996;7.786;2023-01-26T08:33:07;99121.09;;;-1.78;100.00
16544;BME280;8384;47.996;7.786;2023-01-26T08:35:33;99162.63;;;-1.66;100.00
16544;BME280;8384;47.996;7.786;2023-01-26T08:37:58;99171.94;;;-1.53;100.00
16544;BME280;8384;47.996;7.786;2023-01-26T08:40:24;99164.78;;;-1.61;100.00
16544;BME280;8384;47.996;7.786;2023-01-26T08:42:51;99140.16;;;-1.64;100.00
16544;BME280;8384;47.996;7.786;2023-01-26T08:45:16;99161.38;;;-1.46;100.00
16544;BME280;8384;47.996;7.786;2023-01-26T08:47:41;99151.00;;;-1.49;100.00
16544;BME280;8384;47.996;7.786;2023-01-26T08:50:08;99156.81;;;-1.38;100.00
16544;BME280;8384;47.996;7.786;2023-01-26T08:52:33;99158.00;;;-1.40;100.00
16544;BME280;8384;47.996;7.786;2023-01-26T08:54:58;99179.56;;;-1.25;100.00
16544;BME280;8384;47.996;7.786;2023-01-26T08:57:25;99160.84;;;-1.42;100.00
16544;BME280;8384;47.996;7.786;2023-01-26T08:59:50;99164.16;;;-1.31;100.00
16544;BME280;8384;47.996;7.786;2023-01-26T09:02:16;99185.56;;;-1.15;100.00
16544;BME280;8384;47.996;7.786;2023-01-26T09:04:41;99174.69;;;-1.22;100.00
16544;BME280;8384;47.996;7.786;2023-01-26T09:07:06;99172.88;;;-1.29;100.00
16544;BME280;8384;47.996;7.786;2023-01-26T09:09:32;99141.91;;;-1.40;100.00
16544;BME280;8384;47.996;7.786;2023-01-26T09:11:57;99168.97;;;-1.18;100.00
16544;BME280;8384;47.996;7.786;2023-01-26T09:14:23;99180.66;;;-1.11;100.00
16544;BME280;8384;47.996;7.786;2023-01-26T09:16:48;99107.13;;;-1.57;100.00
16544;BME280;8384;47.996;7.786;2023-01-26T09:19:14;99182.25;;;-1.25;100.00
16544;BME280;8384;47.996;7.786;2023-01-26T09:21:39;99152.16;;;-1.44;100.00
16544;BME280;8384;47.996;7.786;2023-01-26T09:24:04;99164.56;;;-1.51;100.00
16544;BME280;8384;47.996;7.786;2023-01-26T09:26:30;99188.13;;;-1.30;100.00
16544;BME280;8384;47.996;7.786;2023-01-26T09:28:55;99169.22;;;-1.37;100.00
16544;BME280;8384;47.996;7.786;2023-01-26T09:31:21;99179.59;;;-1.33;100.00
16544;BME280;8384;47.996;7.786;2023-01-26T09:33:49;99180.44;;;-1.33;100.00
16544;BME280;8384;47.996;7.786;2023-01-26T09:36:15;99199.19;;;-1.33;100.00
16544;BME280;8384;47.996;7.786;2023-01-26T09:38:41;99176.59;;;-1.39;100.00
16544;BME280;8384;47.996;7.786;2023-01-26T09:43:54;99199.50;;;-1.19;100.00
16544;BME280;8384;47.996;7.786;2023-01-26T09:49:20;99198.84;;;-1.22;100.00
16544;BME280;8384;47.996;7.786;2023-01-26T09:52:02;99186.13;;;-1.28;100.00
16544;BME280;8384;47.996;7.786;2023-01-26T09:54:59;99195.22;;;-1.06;100.00
16544;BME280;8384;47.996;7.786;2023-01-26T09:57:46;99200.13;;;-1.09;100.00
16544;BME280;8384;47.996;7.786;2023-01-26T10:00:25;99193.09;;;-1.18;100.00
16544;BME280;8384;47.996;7.786;2023-01-26T10:03:02;99196.88;;;-0.96;100.00
16544;BME280;8384;47.996;7.786;2023-01-26T10:08:00;99195.22;;;-1.06;100.00
16544;BME280;8384;47.996;7.786;2023-01-26T10:10:29;99180.00;;;-1.13;100.00
16544;BME280;8384;47.996;7.786;2023-01-26T10:12:57;99176.16;;;-1.11;100.00
16544;BME280;8384;47.996;7.786;2023-01-26T10:17:55;99191.03;;;-1.00;100.00
16544;BME280;8384;47.996;7.786;2023-01-26T10:22:52;99194.03;;;-0.95;100.00
16544;BME280;8384;47.996;7.786;2023-01-26T10:27:51;99170.22;;;-0.98;100.00
16544;BME280;8384;47.996;7.786;2023-01-26T10:30:18;99184.66;;;-0.99;100.00
16544;BME280;8384;47.996;7.786;2023-01-26T10:32:46;99188.81;;;-0.96;100.00
16544;BME280;8384;47.996;7.786;2023-01-26T10:35:23;99190.34;;;-0.94;100.00
16544;BME280;8384;47.996;7.786;2023-01-26T10:37:49;99174.03;;;-0.92;100.00
16544;BME280;8384;47.996;7.786;2023-01-26T10:40:17;99164.22;;;-1.08;100.00
16544;BME280;8384;47.996;7.786;2023-01-26T10:42:54;99174.16;;;-0.85;100.00
16544;BME280;8384;47.996;7.786;2023-01-26T10:45:29;99158.94;;;-0.93;100.00
16544;BME280;8384;47.996;7.786;2023-01-26T10:48:14;99161.81;;;-0.95;100.00
16544;BME280;8384;47.996;7.786;2023-01-26T10:50:41;99175.13;;;-0.78;100.00
16544;BME280;8384;47.996;7.786;2023-01-26T10:53:13;99142.31;;;-0.88;100.00
16544;BME280;8384;47.996;7.786;2023-01-26T10:55:39;99167.97;;;-0.86;100.00
16544;BME280;8384;47.996;7.786;2023-01-26T10:58:04;99152.09;;;-0.96;100.00
16544;BME280;8384;47.996;7.786;2023-01-26T11:00:31;99166.44;;;-0.80;100.00
16544;BME280;8384;47.996;7.786;2023-01-26T11:03:18;99136.50;;;-1.00;100.00
16544;BME280;8384;47.996;7.786;2023-01-26T11:05:44;99166.50;;;-0.65;99.79
16544;BME280;8384;47.996;7.786;2023-01-26T11:08:32;99165.28;;;-0.63;97.79
16544;BME280;8384;47.996;7.786;2023-01-26T11:10:58;99129.50;;;-0.78;98.14
16544;BME280;8384;47.996;7.786;2023-01-26T11:13:24;99144.84;;;-0.64;96.44
16544;BME280;8384;47.996;7.786;2023-01-26T11:16:01;99109.75;;;-0.85;96.24
16544;BME280;8384;47.996;7.786;2023-01-26T11:21:19;99146.88;;;-0.42;96.85
16544;BME280;8384;47.996;7.786;2023-01-26T11:24:02;99147.47;;;-0.55;96.24
16544;BME280;8384;47.996;7.786;2023-01-26T11:32:50;99147.41;;;-0.70;97.00
16544;BME280;8384;47.996;7.786;2023-01-26T11:37:59;99143.91;;;-0.71;96.98
16544;BME280;8384;47.996;7.786;2023-01-26T11:40:39;99142.16;;;-0.64;97.05
16544;BME280;8384;47.996;7.786;2023-01-26T11:43:25;99138.81;;;-0.66;96.45
16544;BME280;8384;47.996;7.786;2023-01-26T11:46:19;99105.66;;;-0.73;96.10
16544;BME280;8384;47.996;7.786;2023-01-26T11:49:02;99132.00;;;-0.53;96.16
16544;BME280;8384;47.996;7.786;2023-01-26T11:52:02;99131.34;;;-0.55;95.22
16544;BME280;8384;47.996;7.786;2023-01-26T11:54:56;99127.00;;;-0.56;95.74
16544;BME280;8384;47.996;7.786;2023-01-26T11:57:31;99114.28;;;-0.63;95.78
16544;BME280;8384;47.996;7.786;2023-01-26T12:00:02;99122.94;;;-0.52;94.71
16544;BME280;8384;47.996;7.786;2023-01-26T12:02:34;99110.84;;;-0.48;95.76
16544;BME280;8384;47.996;7.786;2023-01-26T12:05:17;99119.41;;;-0.53;94.18
16544;BME280;8384;47.996;7.786;2023-01-26T12:08:09;99111.25;;;-0.59;94.88
16544;BME280;8384;47.996;7.786;2023-01-26T12:10:41;99111.44;;;-0.61;95.43
16544;BME280;8384;47.996;7.786;2023-01-26T12:13:32;99111.84;;;-0.49;96.69
16544;BME280;8384;47.996;7.786;2023-01-26T12:16:12;99110.34;;;-0.52;94.73
16544;BME280;8384;47.996;7.786;2023-01-26T12:18:50;99101.75;;;-0.47;94.48
16544;BME280;8384;47.996;7.786;2023-01-26T12:21:19;99100.03;;;-0.40;94.71
16544;BME280;8384;47.996;7.786;2023-01-26T12:23:56;99100.38;;;-0.43;94.07
16544;BME280;8384;47.996;7.786;2023-01-26T12:26:25;99081.06;;;-0.62;93.52
16544;BME280;8384;47.996;7.786;2023-01-26T12:29:00;99089.34;;;-0.48;94.17
16544;BME280;8384;47.996;7.786;2023-01-26T12:31:36;99084.50;;;-0.53;93.41
16544;BME280;8384;47.996;7.786;2023-01-26T12:34:08;99059.53;;;-0.77;93.50
16544;BME280;8384;47.996;7.786;2023-01-26T12:36:54;99079.06;;;-0.44;94.23
16544;BME280;8384;47.996;7.786;2023-01-26T12:39:34;99050.09;;;-0.49;94.19
16544;BME280;8384;47.996;7.786;2023-01-26T12:44:54;99072.72;;;-0.28;93.94
16544;BME280;8384;47.996;7.786;2023-01-26T12:47:49;99065.66;;;-0.29;91.32
16544;BME280;8384;47.996;7.786;2023-01-26T12:50:26;99071.03;;;-0.29;92.25
16544;BME280;8384;47.996;7.786;2023-01-26T12:53:03;99059.19;;;-0.35;92.21
16544;BME280;8384;47.996;7.786;2023-01-26T12:55:43;99053.25;;;-0.31;93.06
16544;BME280;8384;47.996;7.786;2023-01-26T12:58:14;99037.66;;;-0.50;91.99
16544;BME280;8384;47.996;7.786;2023-01-26T13:00:50;99043.84;;;-0.50;92.64
16544;BME280;8384;47.996;7.786;2023-01-26T13:03:21;99053.16;;;-0.37;92.13
16544;BME280;8384;47.996;7.786;2023-01-26T13:05:57;99048.34;;;-0.42;91.69
16544;BME280;8384;47.996;7.786;2023-01-26T13:10:55;99058.63;;;-0.31;91.55
16544;BME280;8384;47.996;7.786;2023-01-26T13:13:32;99060.88;;;-0.19;91.38
16544;BME280;8384;47.996;7.786;2023-01-26T13:16:31;99046.69;;;-0.28;90.49
16544;BME280;8384;47.996;7.786;2023-01-26T13:18:58;99057.97;;;-0.33;91.08
16544;BME280;8384;47.996;7.786;2023-01-26T13:26:49;99061.59;;;-0.25;90.60
16544;BME280;8384;47.996;7.786;2023-01-26T13:31:53;99044.75;;;-0.34;90.16
16544;BME280;8384;47.996;7.786;2023-01-26T13:34:23;99067.16;;;-0.27;90.37
16544;BME280;8384;47.996;7.786;2023-01-26T13:36:51;99056.63;;;-0.13;90.40
16544;BME280;8384;47.996;7.786;2023-01-26T13:39:30;99064.09;;;-0.09;89.70
16544;BME280;8384;47.996;7.786;2023-01-26T13:41:56;99062.19;;;-0.15;89.68
16544;BME280;8384;47.996;7.786;2023-01-26T13:44:40;99043.53;;;-0.17;90.30
16544;BME280;8384;47.996;7.786;2023-01-26T13:47:12;99064.41;;;-0.04;89.41
16544;BME280;8384;47.996;7.786;2023-01-26T13:49:41;99044.75;;;-0.19;89.87
16544;BME280;8384;47.996;7.786;2023-01-26T13:52:19;99024.03;;;-0.49;89.16
16544;BME280;8384;47.996;7.786;2023-01-26T13:54:47;99039.53;;;-0.36;89.76
16544;BME280;8384;47.996;7.786;2023-01-26T13:57:20;99066.97;;;-0.25;89.82
16544;BME280;8384;47.996;7.786;2023-01-26T13:59:51;99069.84;;;-0.27;89.25
16544;BME280;8384;47.996;7.786;2023-01-26T14:02:25;99066.13;;;-0.26;89.93
16544;BME280;8384;47.996;7.786;2023-01-26T14:04:53;99050.00;;;-0.41;90.08
16544;BME280;8384;47.996;7.786;2023-01-26T14:07:23;99063.56;;;-0.19;89.71
16544;BME280;8384;47.996;7.786;2023-01-26T14:09:50;99067.63;;;-0.23;90.54